sensor_id;sensor_type;location;lat;lon;timestamp;P1;durP1;ratioP1;P2;durP2;ratioP2
14316;SDS011;7242;50.858;6.586;2023-03-25T00:00:58;4.07;;;1.20;;
14316;SDS011;7242;50.858;6.586;2023-03-25T00:04:00;3.63;;;1.10;;
14316;SDS011;7242;50.858;6.586;2023-03-25T00:07:03;2.90;;;1.20;;
14316;SDS011;7242;50.858;6.586;2023-03-25T00:10:04;4.17;;;1.47;;
14316;SDS011;7242;50.858;6.586;2023-03-25T00:13:06;5.03;;;1.50;;
14316;SDS011;7242;50.858;6.586;2023-03-25T00:16:07;3.30;;;1.20;;
14316;SDS011;7242;50.858;6.586;2023-03-25T00:19:09;4.00;;;1.30;;
14316;SDS011;7242;50.858;6.586;2023-03-25T00:22:09;4.23;;;1.00;;
14316;SDS011;7242;50.858;6.586;2023-03-25T00:25:12;4.93;;;1.30;;
14316;SDS011;7242;50.858;6.586;2023-03-25T00:28:19;2.10;;;1.10;;
14316;SDS011;7242;50.858;6.586;2023-03-25T00:31:20;3.43;;;1.00;;
14316;SDS011;7242;50.858;6.586;2023-03-25T00:34:21;2.97;;;1.00;;
14316;SDS011;7242;50.858;6.586;2023-03-25T00:37:22;3.10;;;1.00;;
14316;SDS011;7242;50.858;6.586;2023-03-25T00:40:25;2.20;;;1.07;;
14316;SDS011;7242;50.858;6.586;2023-03-25T00:43:28;3.23;;;1.07;;
14316;SDS011;7242;50.858;6.586;2023-03-25T00:46:31;2.23;;;0.90;;
14316;SDS011;7242;50.858;6.586;2023-03-25T00:49:32;2.40;;;0.90;;
14316;SDS011;7242;50.858;6.586;2023-03-25T00:52:33;2.50;;;1.00;;
14316;SDS011;7242;50.858;6.586;2023-03-25T00:55:34;4.70;;;1.07;;
14316;SDS011;7242;50.858;6.586;2023-03-25T00:58:35;1.10;;;0.90;;
14316;SDS011;7242;50.858;6.586;2023-03-25T01:01:36;2.87;;;1.13;;
14316;SDS011;7242;50.858;6.586;2023-03-25T01:04:38;3.20;;;0.97;;
14316;SDS011;7242;50.858;6.586;2023-03-25T01:07:39;2.40;;;0.80;;
14316;SDS011;7242;50.858;6.586;2023-03-25T01:10:43;1.90;;;1.00;;
14316;SDS011;7242;50.858;6.586;2023-03-25T01:13:44;2.17;;;1.03;;
14316;SDS011;7242;50.858;6.586;2023-03-25T01:16:45;3.40;;;1.10;;
14316;SDS011;7242;50.858;6.586;2023-03-25T01:19:46;3.50;;;1.00;;
14316;SDS011;7242;50.858;6.586;2023-03-25T01:22:47;2.93;;;0.93;;
14316;SDS011;7242;50.858;6.586;2023-03-25T01:25:48;2.27;;;0.87;;
14316;SDS011;7242;50.858;6.586;2023-03-25T01:28:49;1.23;;;0.83;;
14316;SDS011;7242;50.858;6.586;2023-03-25T01:31:51;1.50;;;1.00;;
14316;SDS011;7242;50.858;6.586;2023-03-25T01:34:53;2.70;;;0.97;;
14316;SDS011;7242;50.858;6.586;2023-03-25T01:37:53;2.27;;;0.90;;
14316;SDS011;7242;50.858;6.586;2023-03-25T01:40:55;2.37;;;1.00;;
14316;SDS011;7242;50.858;6.586;2023-03-25T01:44:06;3.57;;;1.00;;
14316;SDS011;7242;50.858;6.586;2023-03-25T01:47:13;3.10;;;1.00;;
14316;SDS011;7242;50.858;6.586;2023-03-25T01:50:15;2.07;;;1.10;;
14316;SDS011;7242;50.858;6.586;2023-03-25T01:53:16;3.73;;;1.17;;
14316;SDS011;7242;50.858;6.586;2023-03-25T01:56:18;3.07;;;1.00;;
14316;SDS011;7242;50.858;6.586;2023-03-25T01:59:23;4.13;;;1.33;;
14316;SDS011;7242;50.858;6.586;2023-03-25T02:02:26;3.23;;;1.13;;
14316;SDS011;7242;50.858;6.586;2023-03-25T02:08:57;3.50;;;1.10;;
14316;SDS011;7242;50.858;6.586;2023-03-25T02:11:59;2.30;;;0.97;;
14316;SDS011;7242;50.858;6.586;2023-03-25T02:15:00;2.10;;;0.90;;
14316;SDS011;7242;50.858;6.586;2023-03-25T02:21:24;3.63;;;1.20;;
14316;SDS011;7242;50.858;6.586;2023-03-25T02:38:03;3.07;;;1.40;;
14316;SDS011;7242;50.858;6.586;2023-03-25T02:41:28;3.50;;;1.40;;
14316;SDS011;7242;50.858;6.586;2023-03-25T02:47:37;6.23;;;1.37;;
14316;SDS011;7242;50.858;6.586;2023-03-25T02:50:48;4.57;;;1.40;;
14316;SDS011;7242;50.858;6.586;2023-03-25T02:53:51;7.20;;;1.43;;
14316;SDS011;7242;50.858;6.586;2023-03-25T02:56:54;5.33;;;1.60;;
14316;SDS011;7242;50.858;6.586;2023-03-25T02:59:56;4.37;;;1.30;;
14316;SDS011;7242;50.858;6.586;2023-03-25T03:03:02;5.77;;;1.33;;
14316;SDS011;7242;50.858;6.586;2023-03-25T03:06:05;6.50;;;1.40;;
14316;SDS011;7242;50.858;6.586;2023-03-25T03:09:12;4.17;;;1.50;;
14316;SDS011;7242;50.858;6.586;2023-03-25T03:15:40;3.87;;;1.30;;
14316;SDS011;7242;50.858;6.586;2023-03-25T03:22:37;4.73;;;1.40;;
14316;SDS011;7242;50.858;6.586;2023-03-25T03:28:51;5.90;;;1.40;;
14316;SDS011;7242;50.858;6.586;2023-03-25T03:32:10;3.57;;;1.40;;
14316;SDS011;7242;50.858;6.586;2023-03-25T03:35:17;2.67;;;1.03;;
14316;SDS011;7242;50.858;6.586;2023-03-25T03:39:00;5.27;;;1.47;;
14316;SDS011;7242;50.858;6.586;2023-03-25T03:42:30;3.23;;;1.20;;
14316;SDS011;7242;50.858;6.586;2023-03-25T03:45:40;4.13;;;1.30;;
14316;SDS011;7242;50.858;6.586;2023-03-25T03:48:51;4.30;;;1.30;;
14316;SDS011;7242;50.858;6.586;2023-03-25T03:51:56;3.27;;;1.30;;
14316;SDS011;7242;50.858;6.586;2023-03-25T03:55:06;6.10;;;1.33;;
14316;SDS011;7242;50.858;6.586;2023-03-25T03:58:20;4.23;;;1.50;;
14316;SDS011;7242;50.858;6.586;2023-03-25T04:01:34;4.13;;;1.30;;
14316;SDS011;7242;50.858;6.586;2023-03-25T04:04:45;4.53;;;1.50;;
14316;SDS011;7242;50.858;6.586;2023-03-25T04:07:50;4.77;;;1.13;;
14316;SDS011;7242;50.858;6.586;2023-03-25T04:10:57;4.67;;;1.40;;
14316;SDS011;7242;50.858;6.586;2023-03-25T04:14:04;4.07;;;1.40;;
14316;SDS011;7242;50.858;6.586;2023-03-25T04:17:06;3.70;;;1.27;;
14316;SDS011;7242;50.858;6.586;2023-03-25T04:20:09;5.23;;;1.40;;
14316;SDS011;7242;50.858;6.586;2023-03-25T04:23:13;5.33;;;1.20;;
14316;SDS011;7242;50.858;6.586;2023-03-25T04:26:15;3.67;;;1.30;;
14316;SDS011;7242;50.858;6.586;2023-03-25T04:29:16;4.43;;;1.20;;
14316;SDS011;7242;50.858;6.586;2023-03-25T04:32:18;5.47;;;1.30;;
14316;SDS011;7242;50.858;6.586;2023-03-25T04:35:19;2.83;;;1.10;;
14316;SDS011;7242;50.858;6.586;2023-03-25T04:38:20;4.67;;;1.10;;
14316;SDS011;7242;50.858;6.586;2023-03-25T04:41:21;4.73;;;1.23;;
14316;SDS011;7242;50.858;6.586;2023-03-25T04:44:22;6.07;;;1.40;;
14316;SDS011;7242;50.858;6.586;2023-03-25T04:47:25;4.00;;;1.27;;
14316;SDS011;7242;50.858;6.586;2023-03-25T04:50:27;3.77;;;0.97;;
14316;SDS011;7242;50.858;6.586;2023-03-25T04:53:28;4.93;;;1.40;;
14316;SDS011;7242;50.858;6.586;2023-03-25T04:56:29;3.57;;;1.07;;
14316;SDS011;7242;50.858;6.586;2023-03-25T04:59:30;3.67;;;1.27;;
14316;SDS011;7242;50.858;6.586;2023-03-25T05:02:31;4.87;;;1.40;;
14316;SDS011;7242;50.858;6.586;2023-03-25T05:05:32;3.53;;;1.20;;
14316;SDS011;7242;50.858;6.586;2023-03-25T05:08:33;5.50;;;1.50;;
14316;SDS011;7242;50.858;6.586;2023-03-25T05:11:35;4.80;;;1.07;;
14316;SDS011;7242;50.858;6.586;2023-03-25T05:14:38;5.90;;;1.40;;
14316;SDS011;7242;50.858;6.586;2023-03-25T05:17:39;6.80;;;1.50;;
14316;SDS011;7242;50.858;6.586;2023-03-25T05:20:41;8.47;;;1.50;;
14316;SDS011;7242;50.858;6.586;2023-03-25T05:23:44;4.93;;;1.70;;
14316;SDS011;7242;50.858;6.586;2023-03-25T05:26:45;3.60;;;1.40;;
14316;SDS011;7242;50.858;6.586;2023-03-25T05:29:45;6.07;;;1.83;;
14316;SDS011;7242;50.858;6.586;2023-03-25T05:32:46;6.03;;;1.90;;
14316;SDS011;7242;50.858;6.586;2023-03-25T05:35:50;8.30;;;1.80;;
14316;SDS011;7242;50.858;6.586;2023-03-25T05:38:51;5.80;;;1.60;;
14316;SDS011;7242;50.858;6.586;2023-03-25T05:41:57;4.97;;;1.90;;
14316;SDS011;7242;50.858;6.586;2023-03-25T05:45:01;8.03;;;2.10;;
14316;SDS011;7242;50.858;6.586;2023-03-25T05:48:02;5.43;;;1.53;;
14316;SDS011;7242;50.858;6.586;2023-03-25T05:51:04;9.33;;;1.53;;
14316;SDS011;7242;50.858;6.586;2023-03-25T05:54:09;6.30;;;1.70;;
14316;SDS011;7242;50.858;6.586;2023-03-25T05:57:10;9.03;;;1.70;;
14316;SDS011;7242;50.858;6.586;2023-03-25T06:00:12;7.17;;;1.50;;
14316;SDS011;7242;50.858;6.586;2023-03-25T06:03:14;6.80;;;1.77;;
14316;SDS011;7242;50.858;6.586;2023-03-25T06:06:17;8.10;;;1.67;;
14316;SDS011;7242;50.858;6.586;2023-03-25T06:09:18;6.97;;;1.97;;
14316;SDS011;7242;50.858;6.586;2023-03-25T06:12:20;4.57;;;1.57;;
14316;SDS011;7242;50.858;6.586;2023-03-25T06:15:21;6.60;;;1.40;;
14316;SDS011;7242;50.858;6.586;2023-03-25T06:18:28;4.93;;;1.40;;
14316;SDS011;7242;50.858;6.586;2023-03-25T06:21:30;6.27;;;1.70;;
14316;SDS011;7242;50.858;6.586;2023-03-25T06:24:32;5.07;;;1.60;;
14316;SDS011;7242;50.858;6.586;2023-03-25T06:27:32;5.97;;;1.33;;
14316;SDS011;7242;50.858;6.586;2023-03-25T06:30:34;7.77;;;1.80;;
14316;SDS011;7242;50.858;6.586;2023-03-25T06:33:35;6.83;;;1.73;;
14316;SDS011;7242;50.858;6.586;2023-03-25T06:36:35;7.30;;;2.00;;
14316;SDS011;7242;50.858;6.586;2023-03-25T06:39:37;7.20;;;1.80;;
14316;SDS011;7242;50.858;6.586;2023-03-25T06:42:46;7.60;;;1.63;;
14316;SDS011;7242;50.858;6.586;2023-03-25T06:46:05;4.03;;;1.40;;
14316;SDS011;7242;50.858;6.586;2023-03-25T06:49:29;4.80;;;1.87;;
14316;SDS011;7242;50.858;6.586;2023-03-25T06:52:32;6.30;;;1.60;;
14316;SDS011;7242;50.858;6.586;2023-03-25T06:55:33;8.53;;;1.53;;
14316;SDS011;7242;50.858;6.586;2023-03-25T06:58:34;5.60;;;1.60;;
14316;SDS011;7242;50.858;6.586;2023-03-25T07:01:35;5.27;;;1.30;;
14316;SDS011;7242;50.858;6.586;2023-03-25T07:04:36;5.63;;;1.20;;
14316;SDS011;7242;50.858;6.586;2023-03-25T07:07:36;5.10;;;1.47;;
14316;SDS011;7242;50.858;6.586;2023-03-25T07:10:37;3.80;;;1.47;;
14316;SDS011;7242;50.858;6.586;2023-03-25T07:13:39;6.47;;;1.43;;
14316;SDS011;7242;50.858;6.586;2023-03-25T07:16:40;5.57;;;1.50;;
14316;SDS011;7242;50.858;6.586;2023-03-25T07:19:41;3.07;;;1.37;;
14316;SDS011;7242;50.858;6.586;2023-03-25T07:22:42;2.93;;;1.30;;
14316;SDS011;7242;50.858;6.586;2023-03-25T07:25:43;5.07;;;1.40;;
14316;SDS011;7242;50.858;6.586;2023-03-25T07:28:44;2.70;;;1.30;;
14316;SDS011;7242;50.858;6.586;2023-03-25T07:31:47;4.73;;;1.20;;
14316;SDS011;7242;50.858;6.586;2023-03-25T07:34:48;4.17;;;1.00;;
14316;SDS011;7242;50.858;6.586;2023-03-25T07:37:49;5.53;;;1.30;;
14316;SDS011;7242;50.858;6.586;2023-03-25T07:40:50;3.87;;;1.40;;
14316;SDS011;7242;50.858;6.586;2023-03-25T07:43:51;5.37;;;1.43;;
14316;SDS011;7242;50.858;6.586;2023-03-25T07:47:04;3.57;;;1.23;;
14316;SDS011;7242;50.858;6.586;2023-03-25T07:50:05;4.63;;;1.33;;
14316;SDS011;7242;50.858;6.586;2023-03-25T07:53:07;3.37;;;1.20;;
14316;SDS011;7242;50.858;6.586;2023-03-25T07:56:08;6.40;;;1.40;;
14316;SDS011;7242;50.858;6.586;2023-03-25T07:59:09;3.90;;;1.53;;
14316;SDS011;7242;50.858;6.586;2023-03-25T08:02:13;5.10;;;1.30;;
14316;SDS011;7242;50.858;6.586;2023-03-25T08:05:15;4.13;;;1.50;;
14316;SDS011;7242;50.858;6.586;2023-03-25T08:08:20;2.97;;;1.33;;
14316;SDS011;7242;50.858;6.586;2023-03-25T08:11:21;4.63;;;1.40;;
14316;SDS011;7242;50.858;6.586;2023-03-25T08:14:22;4.10;;;1.40;;
14316;SDS011;7242;50.858;6.586;2023-03-25T08:17:23;2.53;;;1.00;;
14316;SDS011;7242;50.858;6.586;2023-03-25T08:20:24;3.73;;;1.30;;
14316;SDS011;7242;50.858;6.586;2023-03-25T08:23:24;7.10;;;1.40;;
14316;SDS011;7242;50.858;6.586;2023-03-25T08:26:25;3.13;;;1.20;;
14316;SDS011;7242;50.858;6.586;2023-03-25T08:29:33;5.80;;;1.40;;
14316;SDS011;7242;50.858;6.586;2023-03-25T08:32:34;6.27;;;1.50;;
14316;SDS011;7242;50.858;6.586;2023-03-25T08:35:37;5.17;;;1.40;;
14316;SDS011;7242;50.858;6.586;2023-03-25T08:38:39;8.63;;;2.00;;
14316;SDS011;7242;50.858;6.586;2023-03-25T08:41:40;6.10;;;1.60;;
14316;SDS011;7242;50.858;6.586;2023-03-25T08:44:41;7.70;;;1.80;;
14316;SDS011;7242;50.858;6.586;2023-03-25T08:47:42;6.03;;;1.70;;
14316;SDS011;7242;50.858;6.586;2023-03-25T08:50:44;7.23;;;1.30;;
14316;SDS011;7242;50.858;6.586;2023-03-25T08:53:45;7.63;;;1.80;;
14316;SDS011;7242;50.858;6.586;2023-03-25T08:56:46;7.50;;;1.70;;
14316;SDS011;7242;50.858;6.586;2023-03-25T08:59:47;5.67;;;1.37;;
14316;SDS011;7242;50.858;6.586;2023-03-25T09:02:49;9.63;;;2.03;;
14316;SDS011;7242;50.858;6.586;2023-03-25T09:05:50;6.30;;;1.70;;
14316;SDS011;7242;50.858;6.586;2023-03-25T09:08:51;7.10;;;1.80;;
14316;SDS011;7242;50.858;6.586;2023-03-25T09:11:54;5.67;;;2.00;;
14316;SDS011;7242;50.858;6.586;2023-03-25T09:14:55;6.90;;;1.80;;
14316;SDS011;7242;50.858;6.586;2023-03-25T09:17:56;8.27;;;1.57;;
14316;SDS011;7242;50.858;6.586;2023-03-25T09:21:01;6.10;;;1.47;;
14316;SDS011;7242;50.858;6.586;2023-03-25T09:24:02;8.13;;;1.90;;
14316;SDS011;7242;50.858;6.586;2023-03-25T09:27:03;5.43;;;1.50;;
14316;SDS011;7242;50.858;6.586;2023-03-25T09:30:04;7.27;;;1.63;;
14316;SDS011;7242;50.858;6.586;2023-03-25T09:33:06;5.67;;;1.40;;
14316;SDS011;7242;50.858;6.586;2023-03-25T09:36:07;10.53;;;2.07;;
14316;SDS011;7242;50.858;6.586;2023-03-25T09:39:08;7.13;;;1.60;;
14316;SDS011;7242;50.858;6.586;2023-03-25T09:45:45;5.60;;;1.60;;
14316;SDS011;7242;50.858;6.586;2023-03-25T09:48:47;7.07;;;1.90;;
14316;SDS011;7242;50.858;6.586;2023-03-25T09:51:49;10.30;;;2.10;;
14316;SDS011;7242;50.858;6.586;2023-03-25T09:54:56;7.37;;;2.00;;
14316;SDS011;7242;50.858;6.586;2023-03-25T09:58:17;6.60;;;1.50;;
14316;SDS011;7242;50.858;6.586;2023-03-25T10:14:23;10.90;;;2.50;;
14316;SDS011;7242;50.858;6.586;2023-03-25T10:24:15;10.33;;;2.07;;
14316;SDS011;7242;50.858;6.586;2023-03-25T10:27:31;9.10;;;2.13;;
14316;SDS011;7242;50.858;6.586;2023-03-25T10:30:43;10.17;;;2.10;;
14316;SDS011;7242;50.858;6.586;2023-03-25T10:33:50;5.57;;;2.10;;
14316;SDS011;7242;50.858;6.586;2023-03-25T10:36:55;7.73;;;2.10;;
14316;SDS011;7242;50.858;6.586;2023-03-25T10:40:08;7.60;;;1.80;;
14316;SDS011;7242;50.858;6.586;2023-03-25T10:43:17;6.23;;;1.70;;
14316;SDS011;7242;50.858;6.586;2023-03-25T10:49:33;8.43;;;2.07;;
14316;SDS011;7242;50.858;6.586;2023-03-25T10:52:36;6.03;;;1.70;;
14316;SDS011;7242;50.858;6.586;2023-03-25T10:55:36;7.80;;;1.73;;
14316;SDS011;7242;50.858;6.586;2023-03-25T10:58:41;7.47;;;1.73;;
14316;SDS011;7242;50.858;6.586;2023-03-25T11:01:44;8.37;;;1.77;;
14316;SDS011;7242;50.858;6.586;2023-03-25T11:04:46;6.17;;;1.77;;
14316;SDS011;7242;50.858;6.586;2023-03-25T11:07:50;6.43;;;1.70;;
14316;SDS011;7242;50.858;6.586;2023-03-25T11:10:54;5.93;;;1.73;;
14316;SDS011;7242;50.858;6.586;2023-03-25T11:13:57;7.07;;;1.83;;
14316;SDS011;7242;50.858;6.586;2023-03-25T11:16:59;5.03;;;2.00;;
14316;SDS011;7242;50.858;6.586;2023-03-25T11:20:04;9.13;;;2.10;;
14316;SDS011;7242;50.858;6.586;2023-03-25T11:23:52;8.83;;;1.97;;
14316;SDS011;7242;50.858;6.586;2023-03-25T11:26:36;6.17;;;1.80;;
14316;SDS011;7242;50.858;6.586;2023-03-25T11:29:39;8.43;;;1.50;;
14316;SDS011;7242;50.858;6.586;2023-03-25T11:32:39;5.77;;;1.90;;
14316;SDS011;7242;50.858;6.586;2023-03-25T11:35:41;6.33;;;1.50;;
14316;SDS011;7242;50.858;6.586;2023-03-25T11:38:46;7.13;;;1.77;;
14316;SDS011;7242;50.858;6.586;2023-03-25T11:41:52;6.73;;;1.87;;
14316;SDS011;7242;50.858;6.586;2023-03-25T11:44:54;6.40;;;1.40;;
14316;SDS011;7242;50.858;6.586;2023-03-25T11:47:58;7.37;;;1.57;;
14316;SDS011;7242;50.858;6.586;2023-03-25T11:51:01;5.67;;;1.50;;
14316;SDS011;7242;50.858;6.586;2023-03-25T11:54:05;6.47;;;1.63;;
14316;SDS011;7242;50.858;6.586;2023-03-25T11:57:13;8.43;;;1.83;;
14316;SDS011;7242;50.858;6.586;2023-03-25T12:00:36;10.30;;;1.73;;
14316;SDS011;7242;50.858;6.586;2023-03-25T12:03:38;7.17;;;1.67;;
14316;SDS011;7242;50.858;6.586;2023-03-25T12:07:22;7.60;;;1.87;;
14316;SDS011;7242;50.858;6.586;2023-03-25T12:10:42;8.03;;;1.90;;
14316;SDS011;7242;50.858;6.586;2023-03-25T12:17:41;8.17;;;2.13;;
14316;SDS011;7242;50.858;6.586;2023-03-25T12:24:08;6.47;;;1.70;;
14316;SDS011;7242;50.858;6.586;2023-03-25T12:44:09;6.50;;;1.70;;
14316;SDS011;7242;50.858;6.586;2023-03-25T12:54:10;5.97;;;1.70;;
14316;SDS011;7242;50.858;6.586;2023-03-25T13:07:19;6.37;;;1.83;;
14316;SDS011;7242;50.858;6.586;2023-03-25T13:10:27;5.40;;;1.50;;
14316;SDS011;7242;50.858;6.586;2023-03-25T13:13:30;6.90;;;1.70;;
14316;SDS011;7242;50.858;6.586;2023-03-25T13:16:33;6.67;;;1.90;;
14316;SDS011;7242;50.858;6.586;2023-03-25T13:19:36;4.57;;;1.47;;
14316;SDS011;7242;50.858;6.586;2023-03-25T13:22:42;5.50;;;1.60;;
14316;SDS011;7242;50.858;6.586;2023-03-25T13:25:51;4.40;;;1.60;;
14316;SDS011;7242;50.858;6.586;2023-03-25T13:29:00;5.53;;;1.80;;
14316;SDS011;7242;50.858;6.586;2023-03-25T13:32:05;6.23;;;1.77;;
14316;SDS011;7242;50.858;6.586;2023-03-25T13:35:17;8.33;;;1.70;;
14316;SDS011;7242;50.858;6.586;2023-03-25T13:38:42;5.70;;;1.60;;
14316;SDS011;7242;50.858;6.586;2023-03-25T13:41:49;9.83;;;1.67;;
14316;SDS011;7242;50.858;6.586;2023-03-25T13:45:00;5.60;;;1.60;;
14316;SDS011;7242;50.858;6.586;2023-03-25T13:48:21;8.33;;;1.87;;
14316;SDS011;7242;50.858;6.586;2023-03-25T13:51:23;8.83;;;2.20;;
14316;SDS011;7242;50.858;6.586;2023-03-25T13:54:31;6.87;;;1.80;;
14316;SDS011;7242;50.858;6.586;2023-03-25T14:00:53;6.00;;;1.40;;
14316;SDS011;7242;50.858;6.586;2023-03-25T14:14:21;6.07;;;1.60;;
14316;SDS011;7242;50.858;6.586;2023-03-25T14:17:23;6.10;;;1.57;;
14316;SDS011;7242;50.858;6.586;2023-03-25T14:20:26;6.03;;;1.50;;
14316;SDS011;7242;50.858;6.586;2023-03-25T14:23:32;7.10;;;1.60;;
14316;SDS011;7242;50.858;6.586;2023-03-25T14:26:33;7.67;;;1.80;;
14316;SDS011;7242;50.858;6.586;2023-03-25T14:29:44;5.67;;;1.67;;
14316;SDS011;7242;50.858;6.586;2023-03-25T14:32:46;9.33;;;2.17;;
14316;SDS011;7242;50.858;6.586;2023-03-25T14:35:48;6.33;;;2.10;;
14316;SDS011;7242;50.858;6.586;2023-03-25T14:38:55;7.47;;;1.97;;
14316;SDS011;7242;50.858;6.586;2023-03-25T14:48:29;7.80;;;1.90;;
14316;SDS011;7242;50.858;6.586;2023-03-25T14:54:33;7.50;;;1.90;;
14316;SDS011;7242;50.858;6.586;2023-03-25T14:57:39;9.73;;;2.07;;
14316;SDS011;7242;50.858;6.586;2023-03-25T15:00:42;8.17;;;2.17;;
14316;SDS011;7242;50.858;6.586;2023-03-25T15:03:49;7.20;;;2.07;;
14316;SDS011;7242;50.858;6.586;2023-03-25T15:07:08;8.77;;;1.83;;
14316;SDS011;7242;50.858;6.586;2023-03-25T15:10:19;7.50;;;1.90;;
14316;SDS011;7242;50.858;6.586;2023-03-25T15:13:25;8.93;;;2.07;;
14316;SDS011;7242;50.858;6.586;2023-03-25T15:16:30;5.40;;;1.80;;
14316;SDS011;7242;50.858;6.586;2023-03-25T15:29:48;5.73;;;1.80;;
14316;SDS011;7242;50.858;6.586;2023-03-25T15:56:23;6.40;;;2.17;;
14316;SDS011;7242;50.858;6.586;2023-03-25T15:59:34;6.80;;;2.07;;
14316;SDS011;7242;50.858;6.586;2023-03-25T16:06:05;5.87;;;1.73;;
14316;SDS011;7242;50.858;6.586;2023-03-25T16:09:15;5.70;;;1.70;;
14316;SDS011;7242;50.858;6.586;2023-03-25T16:12:21;5.50;;;1.80;;
14316;SDS011;7242;50.858;6.586;2023-03-25T16:15:24;5.07;;;1.70;;
14316;SDS011;7242;50.858;6.586;2023-03-25T16:18:28;5.63;;;1.60;;
14316;SDS011;7242;50.858;6.586;2023-03-25T16:21:29;6.63;;;1.70;;
14316;SDS011;7242;50.858;6.586;2023-03-25T16:24:30;9.63;;;1.83;;
14316;SDS011;7242;50.858;6.586;2023-03-25T16:27:34;8.93;;;1.97;;
14316;SDS011;7242;50.858;6.586;2023-03-25T16:30:40;5.40;;;1.70;;
14316;SDS011;7242;50.858;6.586;2023-03-25T16:33:43;8.13;;;1.80;;
14316;SDS011;7242;50.858;6.586;2023-03-25T16:36:45;5.83;;;1.80;;
14316;SDS011;7242;50.858;6.586;2023-03-25T16:39:51;7.27;;;1.87;;
14316;SDS011;7242;50.858;6.586;2023-03-25T16:42:53;9.07;;;1.73;;
14316;SDS011;7242;50.858;6.586;2023-03-25T16:46:01;9.17;;;2.10;;
14316;SDS011;7242;50.858;6.586;2023-03-25T16:49:03;5.63;;;1.80;;
14316;SDS011;7242;50.858;6.586;2023-03-25T16:52:09;5.87;;;1.70;;
14316;SDS011;7242;50.858;6.586;2023-03-25T16:55:25;8.77;;;2.00;;
14316;SDS011;7242;50.858;6.586;2023-03-25T16:58:30;7.80;;;1.73;;
14316;SDS011;7242;50.858;6.586;2023-03-25T17:01:38;6.00;;;1.87;;
14316;SDS011;7242;50.858;6.586;2023-03-25T17:04:41;8.33;;;1.90;;
14316;SDS011;7242;50.858;6.586;2023-03-25T17:07:43;8.00;;;2.10;;
14316;SDS011;7242;50.858;6.586;2023-03-25T17:10:49;9.13;;;2.43;;
14316;SDS011;7242;50.858;6.586;2023-03-25T17:13:57;8.97;;;2.00;;
14316;SDS011;7242;50.858;6.586;2023-03-25T17:17:01;7.37;;;1.80;;
14316;SDS011;7242;50.858;6.586;2023-03-25T17:20:11;7.30;;;1.90;;
14316;SDS011;7242;50.858;6.586;2023-03-25T17:26:21;9.67;;;2.10;;
14316;SDS011;7242;50.858;6.586;2023-03-25T17:29:23;9.23;;;2.00;;
14316;SDS011;7242;50.858;6.586;2023-03-25T17:32:24;10.13;;;2.30;;
14316;SDS011;7242;50.858;6.586;2023-03-25T17:35:28;10.87;;;2.50;;
14316;SDS011;7242;50.858;6.586;2023-03-25T17:38:31;10.77;;;2.47;;
14316;SDS011;7242;50.858;6.586;2023-03-25T17:41:37;9.33;;;2.50;;
14316;SDS011;7242;50.858;6.586;2023-03-25T17:44:40;10.40;;;2.90;;
14316;SDS011;7242;50.858;6.586;2023-03-25T17:47:44;7.67;;;2.50;;
14316;SDS011;7242;50.858;6.586;2023-03-25T17:50:50;11.43;;;2.93;;
14316;SDS011;7242;50.858;6.586;2023-03-25T17:53:52;8.67;;;2.73;;
14316;SDS011;7242;50.858;6.586;2023-03-25T17:56:53;6.07;;;2.60;;
14316;SDS011;7242;50.858;6.586;2023-03-25T17:59:53;11.57;;;2.87;;
14316;SDS011;7242;50.858;6.586;2023-03-25T18:02:55;8.67;;;2.27;;
14316;SDS011;7242;50.858;6.586;2023-03-25T18:05:56;11.03;;;3.17;;
14316;SDS011;7242;50.858;6.586;2023-03-25T18:08:59;10.30;;;2.60;;
14316;SDS011;7242;50.858;6.586;2023-03-25T18:12:00;9.60;;;2.77;;
14316;SDS011;7242;50.858;6.586;2023-03-25T18:15:03;9.73;;;3.47;;
14316;SDS011;7242;50.858;6.586;2023-03-25T18:18:05;10.50;;;2.90;;
14316;SDS011;7242;50.858;6.586;2023-03-25T18:21:08;8.23;;;2.40;;
14316;SDS011;7242;50.858;6.586;2023-03-25T18:24:11;9.30;;;2.43;;
14316;SDS011;7242;50.858;6.586;2023-03-25T18:27:12;9.17;;;2.23;;
14316;SDS011;7242;50.858;6.586;2023-03-25T18:33:16;9.37;;;2.40;;
14316;SDS011;7242;50.858;6.586;2023-03-25T18:36:17;8.73;;;2.20;;
14316;SDS011;7242;50.858;6.586;2023-03-25T18:39:21;10.43;;;2.63;;
14316;SDS011;7242;50.858;6.586;2023-03-25T18:42:23;8.67;;;2.20;;
14316;SDS011;7242;50.858;6.586;2023-03-25T18:45:24;8.23;;;2.63;;
14316;SDS011;7242;50.858;6.586;2023-03-25T18:48:25;12.70;;;2.50;;
14316;SDS011;7242;50.858;6.586;2023-03-25T18:51:27;8.97;;;3.00;;
14316;SDS011;7242;50.858;6.586;2023-03-25T18:54:28;8.87;;;2.57;;
14316;SDS011;7242;50.858;6.586;2023-03-25T18:57:29;9.87;;;2.93;;
14316;SDS011;7242;50.858;6.586;2023-03-25T19:00:34;14.00;;;2.70;;
14316;SDS011;7242;50.858;6.586;2023-03-25T19:03:37;12.80;;;2.83;;
14316;SDS011;7242;50.858;6.586;2023-03-25T19:06:38;9.20;;;2.73;;
14316;SDS011;7242;50.858;6.586;2023-03-25T19:09:39;14.70;;;3.30;;
14316;SDS011;7242;50.858;6.586;2023-03-25T19:12:40;14.37;;;2.93;;
14316;SDS011;7242;50.858;6.586;2023-03-25T19:15:43;12.27;;;2.73;;
14316;SDS011;7242;50.858;6.586;2023-03-25T19:18:45;13.67;;;3.00;;
14316;SDS011;7242;50.858;6.586;2023-03-25T19:21:46;9.40;;;2.53;;
14316;SDS011;7242;50.858;6.586;2023-03-25T19:24:47;11.80;;;2.70;;
14316;SDS011;7242;50.858;6.586;2023-03-25T19:27:48;9.73;;;3.33;;
14316;SDS011;7242;50.858;6.586;2023-03-25T19:30:49;9.17;;;2.60;;
14316;SDS011;7242;50.858;6.586;2023-03-25T19:33:53;14.63;;;2.93;;
14316;SDS011;7242;50.858;6.586;2023-03-25T19:36:54;11.63;;;3.07;;
14316;SDS011;7242;50.858;6.586;2023-03-25T19:40:02;11.70;;;2.90;;
14316;SDS011;7242;50.858;6.586;2023-03-25T19:43:10;9.13;;;2.60;;
14316;SDS011;7242;50.858;6.586;2023-03-25T19:46:12;16.07;;;5.23;;
14316;SDS011;7242;50.858;6.586;2023-03-25T19:49:13;14.63;;;4.30;;
14316;SDS011;7242;50.858;6.586;2023-03-25T19:52:13;14.93;;;5.07;;
14316;SDS011;7242;50.858;6.586;2023-03-25T19:55:15;10.10;;;3.33;;
14316;SDS011;7242;50.858;6.586;2023-03-25T19:58:17;19.50;;;8.70;;
14316;SDS011;7242;50.858;6.586;2023-03-25T20:01:18;17.93;;;6.70;;
14316;SDS011;7242;50.858;6.586;2023-03-25T20:04:21;14.50;;;3.73;;
14316;SDS011;7242;50.858;6.586;2023-03-25T20:07:22;15.90;;;5.67;;
14316;SDS011;7242;50.858;6.586;2023-03-25T20:10:26;16.17;;;4.03;;
14316;SDS011;7242;50.858;6.586;2023-03-25T20:13:29;15.33;;;3.70;;
14316;SDS011;7242;50.858;6.586;2023-03-25T20:16:30;19.80;;;6.77;;
14316;SDS011;7242;50.858;6.586;2023-03-25T20:19:31;19.73;;;5.97;;
14316;SDS011;7242;50.858;6.586;2023-03-25T20:22:33;14.23;;;3.50;;
14316;SDS011;7242;50.858;6.586;2023-03-25T20:25:34;15.23;;;3.87;;
14316;SDS011;7242;50.858;6.586;2023-03-25T20:28:35;14.47;;;3.43;;
14316;SDS011;7242;50.858;6.586;2023-03-25T20:31:36;12.57;;;3.03;;
14316;SDS011;7242;50.858;6.586;2023-03-25T20:34:37;15.77;;;3.83;;
14316;SDS011;7242;50.858;6.586;2023-03-25T20:37:39;16.43;;;3.40;;
14316;SDS011;7242;50.858;6.586;2023-03-25T20:40:41;13.40;;;3.47;;
14316;SDS011;7242;50.858;6.586;2023-03-25T20:43:42;13.63;;;3.70;;
14316;SDS011;7242;50.858;6.586;2023-03-25T20:46:43;13.57;;;4.53;;
14316;SDS011;7242;50.858;6.586;2023-03-25T20:49:45;15.70;;;3.77;;
14316;SDS011;7242;50.858;6.586;2023-03-25T20:52:46;15.43;;;4.20;;
14316;SDS011;7242;50.858;6.586;2023-03-25T20:55:47;10.77;;;3.50;;
14316;SDS011;7242;50.858;6.586;2023-03-25T20:58:51;14.83;;;3.57;;
14316;SDS011;7242;50.858;6.586;2023-03-25T21:01:53;14.17;;;3.83;;
14316;SDS011;7242;50.858;6.586;2023-03-25T21:04:55;13.90;;;4.30;;
14316;SDS011;7242;50.858;6.586;2023-03-25T21:07:58;14.33;;;3.87;;
14316;SDS011;7242;50.858;6.586;2023-03-25T21:11:00;14.83;;;3.77;;
14316;SDS011;7242;50.858;6.586;2023-03-25T21:14:01;15.97;;;3.77;;
14316;SDS011;7242;50.858;6.586;2023-03-25T21:17:03;13.23;;;3.50;;
14316;SDS011;7242;50.858;6.586;2023-03-25T21:20:04;13.10;;;3.93;;
14316;SDS011;7242;50.858;6.586;2023-03-25T21:23:14;15.20;;;4.73;;
14316;SDS011;7242;50.858;6.586;2023-03-25T21:26:29;14.33;;;3.33;;
14316;SDS011;7242;50.858;6.586;2023-03-25T21:29:34;11.97;;;3.30;;